Alderney, United Kingdom

5:22 AM GMT on February 28, 2015 (GMT +0000)
Northside, Vale Guernsey | Change Station
CLOSE
Current Station
Personal Weather Station
Location: Vale, VALE
Elevation: 16 ft
Nearby Weather Stations

Elev 16 ft 49.48 °N, 2.51 °W | Updated 9 seconds ago

Overcast
Overcast
46.9 °F
Feels Like 47 °F
N
3.0
Wind Variable Wind from NW
Gusts 10.0 mph

Today
High -- | Low -- °F
--% Chance of Precip.
Yesterday
High -- | Low -- °F
Precip. -- in
6:54 AM 5:48 PM
Waxing Gibbous, 74% visible
Pressure 29.98 in
Visibility 4.3 miles
Clouds Overcast 700 ft
Windchill 47 °F
Dew Point 45 °F
Humidity 92%
Rainfall 0.00 in
Snow Depth Not available.
UV 0 out of 12
Pollen Not available.
Air Quality Not available.
Flu Activity Not available.
METAR LFRC 280500Z AUTO 18011KT 7000 OVC007 05/04 Q1015

More Conditions Fewer Conditions

Pressure 29.98 in
Visibility 4.3 miles
Clouds Overcast 700 ft
Windchill 47 °F
Dew Point 45 °F
Humidity 92%
Rainfall 0.00 in
Snow Depth Not available.
UV 0 out of 12
Pollen Not available.
Air Quality Not available.
Flu Activity Not available.
METAR LFRC 280500Z AUTO 18011KT 7000 OVC007 05/04 Q1015

More Conditions Fewer Conditions

10-Day Weather Forecast

Almanac

Astronomy

Feb. 28, 2015 Rise Set
Actual Time
Civil Twilight
Nautical Twilight
Astronomical Twilight
Moon
Length of Visible Light
Length of Day
Tomorrow will be .
, % of the Moon is Illuminated

Today's Extremes

Country Highs Country Lows

Community

WunderPhotos

Upload Photos

1,800,973 photos uploaded!

WunderBlogs® & News

Nearby

Air Quality

  Air Quality AQ Index Pollutant
Not available.

Snow Depth

Station Depth Elevation

Earthquake Activity

City Distance Mag. Time & Date
Minimum magnitude displayed is 2.5.

Coastal Water Temperatures

Place Temperature

Nearby Weather Stations